createdAt,value
2022-08-07T00:00:40.046Z,16.11
2022-08-07T00:03:07.324Z,16.07
2022-08-07T00:05:36.246Z,16.03
2022-08-07T00:08:05.673Z,16.00
2022-08-07T00:10:34.826Z,15.96
2022-08-07T00:13:23.549Z,15.93
2022-08-07T00:15:51.717Z,15.88
2022-08-07T00:18:23.925Z,15.86
2022-08-07T00:20:54.594Z,15.82
2022-08-07T00:23:21.844Z,15.79
2022-08-07T00:25:52.080Z,15.76
2022-08-07T00:28:33.734Z,15.71
2022-08-07T00:31:06.238Z,15.68
2022-08-07T00:33:40.553Z,15.63
2022-08-07T00:36:08.772Z,15.61
2022-08-07T00:38:37.065Z,15.35
2022-08-07T00:41:09.927Z,15.51
2022-08-07T00:44:01.649Z,15.50
2022-08-07T00:46:28.569Z,15.45
2022-08-07T00:48:55.220Z,15.44
2022-08-07T00:51:21.862Z,15.43
2022-08-07T00:53:50.750Z,15.40
2022-08-07T00:56:30.297Z,15.37
2022-08-07T00:59:01.050Z,15.33
2022-08-07T01:01:28.474Z,15.32
2022-08-07T01:04:08.632Z,15.29
2022-08-07T01:06:35.833Z,15.27
2022-08-07T01:09:03.869Z,15.25
2022-08-07T01:12:09.583Z,15.22
2022-08-07T01:14:21.346Z,15.16
2022-08-07T01:16:56.579Z,15.14
2022-08-07T01:19:26.696Z,15.13
2022-08-07T01:21:55.632Z,15.12
2022-08-07T01:24:22.983Z,15.09
2022-08-07T01:26:52.234Z,15.08
2022-08-07T01:29:20.583Z,15.05
2022-08-07T01:31:49.630Z,15.02
2022-08-07T01:34:18.606Z,15.01
2022-08-07T01:36:52.825Z,14.98
2022-08-07T01:39:26.823Z,14.95
2022-08-07T01:42:37.161Z,14.90
2022-08-07T01:44:54.028Z,14.87
2022-08-07T01:48:18.955Z,14.84
2022-08-07T01:50:09.117Z,14.80
2022-08-07T01:52:38.797Z,14.78
2022-08-07T01:55:10.926Z,14.75
2022-08-07T01:58:06.516Z,14.72
2022-08-07T02:00:49.110Z,14.68
2022-08-07T02:03:26.272Z,14.65
2022-08-07T02:06:08.935Z,14.64
2022-08-07T02:08:54.178Z,14.62
2022-08-07T02:11:30.782Z,14.60
2022-08-07T02:14:10.002Z,14.57
2022-08-07T02:16:57.606Z,14.57
2022-08-07T02:20:04.685Z,14.55
2022-08-07T02:22:13.592Z,14.54
2022-08-07T02:24:46.382Z,14.52
2022-08-07T02:27:19.108Z,14.51
2022-08-07T02:29:48.966Z,14.48
2022-08-07T02:32:23.259Z,14.46
2022-08-07T02:34:52.186Z,14.44
2022-08-07T02:37:20.669Z,14.42
2022-08-07T02:40:02.036Z,14.40
2022-08-07T02:42:37.166Z,14.36
2022-08-07T02:45:07.608Z,14.36
2022-08-07T02:47:54.050Z,14.32
2022-08-07T02:50:21.133Z,14.33
2022-08-07T02:53:03.527Z,14.30
2022-08-07T02:56:04.319Z,14.29
2022-08-07T02:58:27.265Z,14.26
2022-08-07T03:00:57.590Z,14.27
2022-08-07T03:03:29.580Z,14.24
2022-08-07T03:06:16.642Z,14.21
2022-08-07T03:08:52.811Z,14.20
2022-08-07T03:11:20.501Z,14.19
2022-08-07T03:13:57.629Z,14.17
2022-08-07T03:16:30.502Z,14.16
2022-08-07T03:18:59.298Z,14.13
2022-08-07T03:21:27.550Z,14.12
2022-08-07T03:24:17.805Z,14.10
2022-08-07T03:26:58.504Z,13.87
2022-08-07T03:29:33.807Z,14.03
2022-08-07T03:32:07.270Z,14.04
2022-08-07T03:34:47.369Z,14.04
2022-08-07T03:37:32.481Z,14.02
2022-08-07T03:40:15.023Z,14.01
2022-08-07T03:42:43.719Z,14.01
2022-08-07T03:45:11.737Z,14.02
2022-08-07T03:47:47.974Z,14.00
2022-08-07T03:50:23.071Z,14.00
2022-08-07T03:52:52.062Z,14.01
2022-08-07T03:55:19.085Z,13.99
2022-08-07T03:58:35.250Z,13.97
2022-08-07T04:00:36.871Z,13.95
2022-08-07T04:03:05.244Z,13.93
2022-08-07T04:05:40.411Z,13.91
2022-08-07T04:08:11.992Z,13.90
2022-08-07T04:10:39.923Z,13.67
2022-08-07T04:13:15.543Z,13.77
2022-08-07T04:15:49.036Z,13.78
2022-08-07T04:18:56.560Z,13.75
2022-08-07T04:21:02.898Z,13.70
2022-08-07T04:23:43.283Z,13.68
2022-08-07T04:26:21.663Z,13.66
2022-08-07T04:28:48.886Z,13.65
2022-08-07T04:31:20.214Z,13.64
2022-08-07T04:33:47.397Z,13.61
2022-08-07T04:36:22.736Z,13.60
2022-08-07T04:38:52.924Z,13.56
2022-08-07T04:41:19.714Z,13.53
2022-08-07T04:44:12.632Z,13.49
2022-08-07T04:58:11.157Z,13.35
2022-08-07T05:00:57.381Z,13.32
2022-08-07T05:06:19.183Z,13.78
2022-08-07T05:11:57.128Z,13.45
2022-08-07T05:14:52.323Z,13.37
2022-08-07T05:17:51.696Z,13.43
2022-08-07T05:20:15.193Z,13.45
2022-08-07T05:22:46.624Z,13.48
2022-08-07T05:25:26.114Z,13.55
2022-08-07T05:28:19.959Z,13.67
2022-08-07T05:30:48.919Z,13.80
2022-08-07T05:33:17.999Z,13.91
2022-08-07T05:35:49.991Z,13.93
2022-08-07T05:38:59.634Z,13.92
2022-08-07T05:41:12.169Z,14.03
2022-08-07T05:44:01.573Z,14.22
2022-08-07T05:46:31.509Z,14.43
2022-08-07T05:48:59.699Z,14.63
2022-08-07T05:51:31.414Z,14.83
2022-08-07T05:54:12.780Z,15.04
2022-08-07T05:56:51.320Z,15.26
2022-08-07T05:59:19.572Z,15.50
2022-08-07T06:01:50.029Z,15.68
2022-08-07T06:04:19.841Z,15.87
2022-08-07T06:06:47.848Z,16.05
2022-08-07T06:10:04.000Z,16.03
2022-08-07T06:12:10.520Z,16.04
2022-08-07T06:14:39.564Z,15.98
2022-08-07T06:17:07.121Z,15.90
2022-08-07T06:19:52.298Z,15.83
2022-08-07T06:22:23.997Z,15.76
2022-08-07T06:24:58.049Z,15.76
2022-08-07T06:27:59.966Z,15.77
2022-08-07T06:30:32.279Z,15.80
2022-08-07T06:33:01.814Z,15.89
2022-08-07T06:35:30.631Z,16.22
2022-08-07T06:38:08.221Z,16.66
2022-08-07T06:40:45.886Z,17.11
2022-08-07T06:43:21.327Z,17.53
2022-08-07T06:45:49.222Z,17.92
2022-08-07T06:48:16.231Z,18.31
2022-08-07T06:50:51.893Z,18.71
2022-08-07T06:55:28.517Z,19.11
2022-08-07T06:56:15.271Z,19.56
2022-08-07T07:00:13.059Z,19.88
2022-08-07T07:01:43.822Z,20.26
2022-08-07T07:04:32.546Z,20.67
2022-08-07T07:07:02.394Z,21.08
2022-08-07T07:09:38.265Z,21.45
2022-08-07T07:15:26.133Z,22.26
2022-08-07T07:18:08.660Z,22.67
2022-08-07T07:20:37.770Z,23.04
2022-08-07T07:24:08.413Z,23.23
2022-08-07T07:26:31.670Z,23.42
2022-08-07T07:29:57.124Z,23.68
2022-08-07T07:31:47.669Z,23.85
2022-08-07T07:34:21.867Z,23.99
2022-08-07T07:36:58.958Z,24.17
2022-08-07T07:39:52.048Z,24.39
2022-08-07T07:42:25.820Z,24.72
2022-08-07T07:45:02.261Z,24.96
2022-08-07T07:47:30.229Z,25.21
2022-08-07T07:50:34.296Z,25.39
2022-08-07T07:53:13.502Z,25.56
2022-08-07T07:55:54.710Z,25.74
2022-08-07T07:58:30.891Z,25.99
2022-08-07T08:02:03.942Z,26.18
2022-08-07T08:04:06.033Z,26.31
2022-08-07T08:06:35.157Z,26.39
2022-08-07T08:09:06.103Z,26.56
2022-08-07T08:11:59.507Z,26.58
2022-08-07T08:14:26.246Z,26.62
2022-08-07T08:16:55.446Z,26.71
2022-08-07T08:20:18.168Z,26.81
2022-08-07T08:22:35.053Z,26.85
2022-08-07T08:25:41.745Z,26.88
2022-08-07T08:28:17.009Z,26.88
2022-08-07T08:30:59.052Z,27.00
2022-08-07T08:33:33.152Z,27.16
2022-08-07T08:36:01.809Z,27.15
2022-08-07T08:38:40.668Z,27.17
2022-08-07T08:49:13.062Z,27.22
2022-08-07T08:52:12.760Z,27.74
2022-08-07T08:54:49.866Z,28.22
2022-08-07T08:57:30.404Z,28.13
2022-08-07T09:00:06.942Z,27.55
2022-08-07T09:02:49.517Z,27.46
2022-08-07T09:11:24.954Z,27.30
2022-08-07T09:14:30.473Z,26.83
2022-08-07T09:19:57.642Z,26.78
2022-08-07T09:25:24.644Z,27.64
2022-08-07T09:31:10.682Z,27.06
2022-08-07T09:36:46.898Z,27.37
2022-08-07T09:42:09.257Z,27.58
2022-08-07T09:47:42.712Z,27.47
2022-08-07T09:53:09.172Z,28.00
2022-08-07T10:02:03.114Z,28.59
2022-08-07T10:10:07.149Z,28.76
2022-08-07T10:13:15.699Z,28.44
2022-08-07T10:16:09.689Z,28.53
2022-08-07T10:24:23.481Z,28.95
2022-08-07T10:30:06.321Z,29.04
2022-08-07T10:33:00.225Z,29.04
2022-08-07T10:35:55.461Z,29.01
2022-08-07T10:41:14.869Z,29.23
2022-08-07T10:44:16.342Z,29.37
2022-08-07T10:46:55.722Z,29.40
2022-08-07T10:52:13.857Z,29.83
2022-08-07T10:54:53.421Z,29.86
2022-08-07T11:00:39.294Z,30.12
2022-08-07T11:03:17.164Z,30.25
2022-08-07T11:08:43.591Z,30.45
2022-08-07T11:14:45.144Z,30.31
2022-08-07T11:16:52.826Z,30.41
2022-08-07T11:19:31.124Z,30.60
2022-08-07T11:25:17.030Z,30.50
2022-08-07T11:30:41.918Z,29.93
2022-08-07T11:33:59.096Z,29.73
2022-08-07T11:36:47.846Z,29.68
2022-08-07T11:42:29.964Z,29.38
2022-08-07T11:48:18.219Z,29.36
2022-08-07T12:10:05.855Z,29.96
2022-08-07T12:12:42.875Z,29.83
2022-08-07T12:15:58.034Z,29.76
2022-08-07T12:18:45.515Z,29.68
2022-08-07T12:22:37.022Z,29.80
2022-08-07T18:02:01.443Z,26.05
2022-08-07T18:12:31.497Z,25.50
2022-08-07T18:15:08.786Z,25.41
2022-08-07T18:18:46.259Z,25.25
2022-08-07T18:21:07.641Z,25.19
2022-08-07T18:35:25.494Z,24.64
2022-08-07T18:43:49.748Z,24.39
2022-08-07T18:46:33.722Z,24.33
2022-08-07T18:50:19.057Z,24.25
2022-08-07T19:00:34.339Z,24.11
2022-08-07T19:03:35.582Z,23.93
2022-08-07T19:06:16.440Z,23.89
2022-08-07T19:09:09.448Z,23.72
2022-08-07T19:12:11.092Z,23.65
2022-08-07T19:15:01.464Z,23.53
2022-08-07T19:18:11.329Z,23.44
2022-08-07T19:30:55.842Z,23.24
2022-08-07T19:32:05.445Z,23.13
2022-08-07T19:34:34.374Z,23.03
2022-08-07T19:37:17.240Z,22.96
2022-08-07T19:39:57.537Z,22.90
2022-08-07T19:42:31.323Z,22.80
2022-08-07T19:45:09.374Z,22.73
2022-08-07T19:47:41.934Z,22.63
2022-08-07T19:50:41.053Z,22.54
2022-08-07T19:53:00.866Z,22.45
2022-08-07T19:55:57.818Z,22.40
2022-08-07T19:58:27.842Z,22.29
2022-08-07T20:00:57.813Z,22.23
2022-08-07T20:03:34.850Z,22.17
2022-08-07T20:06:06.420Z,22.09
2022-08-07T20:08:50.354Z,22.02
2022-08-07T20:11:34.202Z,21.94
2022-08-07T20:14:20.892Z,21.85
2022-08-07T20:16:57.918Z,21.76
2022-08-07T20:19:48.380Z,21.67
2022-08-07T20:22:29.314Z,21.60
2022-08-07T20:25:06.131Z,21.54
2022-08-07T20:27:47.599Z,21.44
2022-08-07T20:30:21.778Z,21.37
2022-08-07T20:32:54.926Z,21.33
2022-08-07T20:35:34.259Z,21.25
2022-08-07T20:38:06.393Z,21.20
2022-08-07T20:40:40.597Z,21.13
2022-08-07T20:43:14.649Z,21.08
2022-08-07T20:46:27.745Z,21.00
2022-08-07T20:48:39.647Z,20.93
2022-08-07T20:51:27.198Z,20.86
2022-08-07T20:54:03.667Z,20.78
2022-08-07T20:56:45.999Z,20.74
2022-08-07T21:00:04.412Z,20.68
2022-08-07T21:02:23.222Z,20.62
2022-08-07T21:04:55.263Z,20.57
2022-08-07T21:07:26.408Z,20.51
2022-08-07T21:10:00.282Z,20.47
2022-08-07T21:12:31.686Z,20.42
2022-08-07T21:15:01.200Z,20.36
2022-08-07T21:18:29.419Z,20.31
2022-08-07T21:20:29.831Z,20.22
2022-08-07T21:23:07.638Z,20.14
2022-08-07T21:28:49.464Z,20.08
2022-08-07T21:34:21.295Z,19.90
2022-08-07T21:37:01.501Z,19.93
2022-08-07T21:50:14.691Z,19.69
2022-08-07T21:53:08.597Z,19.63
2022-08-07T22:01:22.462Z,19.46
2022-08-07T22:04:17.704Z,19.39
2022-08-07T22:07:01.515Z,19.34
2022-08-07T22:09:38.062Z,19.31
2022-08-07T22:12:24.651Z,19.25
2022-08-07T22:15:02.293Z,19.15
2022-08-07T22:17:47.046Z,19.08
2022-08-07T22:20:29.451Z,19.10
2022-08-07T22:23:06.360Z,19.06
2022-08-07T22:25:42.235Z,19.02
2022-08-07T22:28:30.981Z,18.99
2022-08-07T22:31:06.865Z,18.95
2022-08-07T22:33:56.253Z,18.94
2022-08-07T22:37:03.945Z,18.78
2022-08-07T22:40:05.033Z,18.73
2022-08-07T22:42:35.120Z,18.79
2022-08-07T22:45:10.937Z,18.77
2022-08-07T22:54:08.443Z,18.68
2022-08-07T23:07:51.551Z,18.78
2022-08-07T23:16:05.580Z,18.59
2022-08-07T23:19:19.459Z,18.46
